sensor_id;sensor_type;location;lat;lon;timestamp;pressure;altitude;pressure_sealevel;temperature;humidity
11519;BME280;5816;48.228;14.116;2023-06-26T04:48:10;98088.38;;;16.60;100.00
11519;BME280;5816;48.228;14.116;2023-06-26T04:53:12;98103.63;;;16.78;100.00
11519;BME280;5816;48.228;14.116;2023-06-26T04:58:13;98109.69;;;16.88;100.00
11519;BME280;5816;48.228;14.116;2023-06-26T05:03:17;98107.97;;;17.11;99.43
11519;BME280;5816;48.228;14.116;2023-06-26T05:08:23;98098.81;;;17.12;98.73
11519;BME280;5816;48.228;14.116;2023-06-26T05:13:26;98104.69;;;17.32;98.01
11519;BME280;5816;48.228;14.116;2023-06-26T05:18:29;98105.41;;;17.57;96.65
11519;BME280;5816;48.228;14.116;2023-06-26T05:23:32;98097.59;;;17.62;96.16
11519;BME280;5816;48.228;14.116;2023-06-26T05:28:34;98096.94;;;17.60;95.76
11519;BME280;5816;48.228;14.116;2023-06-26T05:33:38;98097.25;;;17.73;95.29
11519;BME280;5816;48.228;14.116;2023-06-26T05:38:43;98102.22;;;17.85;94.10
11519;BME280;5816;48.228;14.116;2023-06-26T05:43:45;98095.66;;;18.10;91.45
11519;BME280;5816;48.228;14.116;2023-06-26T05:48:48;98090.81;;;18.20;90.51
11519;BME280;5816;48.228;14.116;2023-06-26T05:53:51;98106.22;;;18.43;89.71
11519;BME280;5816;48.228;14.116;2023-06-26T05:58:54;98102.38;;;18.60;89.30
11519;BME280;5816;48.228;14.116;2023-06-26T06:03:56;98096.94;;;18.60;87.82
11519;BME280;5816;48.228;14.116;2023-06-26T06:08:58;98100.31;;;19.00;86.30
11519;BME280;5816;48.228;14.116;2023-06-26T06:13:59;98106.59;;;19.15;86.16
11519;BME280;5816;48.228;14.116;2023-06-26T06:19:01;98105.28;;;19.40;85.93
11519;BME280;5816;48.228;14.116;2023-06-26T06:24:05;98107.06;;;19.48;82.70
11519;BME280;5816;48.228;14.116;2023-06-26T06:29:08;98110.88;;;19.83;83.41
11519;BME280;5816;48.228;14.116;2023-06-26T06:34:10;98107.34;;;20.04;82.17
11519;BME280;5816;48.228;14.116;2023-06-26T06:39:11;98101.78;;;20.12;80.57
11519;BME280;5816;48.228;14.116;2023-06-26T06:44:13;98052.16;;;20.04;79.41
11519;BME280;5816;48.228;14.116;2023-06-26T06:49:15;98086.47;;;20.47;79.57
11519;BME280;5816;48.228;14.116;2023-06-26T06:54:16;98093.25;;;20.58;77.18
11519;BME280;5816;48.228;14.116;2023-06-26T06:59:18;98095.06;;;20.72;75.42
11519;BME280;5816;48.228;14.116;2023-06-26T07:04:20;98087.66;;;20.88;74.98
11519;BME280;5816;48.228;14.116;2023-06-26T07:09:22;98095.75;;;21.09;75.71
11519;BME280;5816;48.228;14.116;2023-06-26T07:14:23;98075.38;;;21.33;73.79
11519;BME280;5816;48.228;14.116;2023-06-26T07:19:25;98082.66;;;21.60;75.30
11519;BME280;5816;48.228;14.116;2023-06-26T07:24:27;98077.66;;;21.71;72.61
11519;BME280;5816;48.228;14.116;2023-06-26T07:29:29;98085.72;;;21.92;72.18
11519;BME280;5816;48.228;14.116;2023-06-26T07:34:31;98087.00;;;22.03;69.86
11519;BME280;5816;48.228;14.116;2023-06-26T07:39:33;98093.34;;;22.16;70.53
11519;BME280;5816;48.228;14.116;2023-06-26T07:44:35;98094.66;;;22.40;69.50
11519;BME280;5816;48.228;14.116;2023-06-26T07:49:37;98084.59;;;22.54;69.33
11519;BME280;5816;48.228;14.116;2023-06-26T07:54:40;98083.13;;;22.78;69.30
11519;BME280;5816;48.228;14.116;2023-06-26T07:59:42;98088.81;;;23.10;68.88
11519;BME280;5816;48.228;14.116;2023-06-26T08:04:44;98084.72;;;23.45;68.75
11519;BME280;5816;48.228;14.116;2023-06-26T08:09:46;98077.31;;;23.59;68.23
11519;BME280;5816;48.228;14.116;2023-06-26T08:14:48;98079.69;;;24.00;67.59
11519;BME280;5816;48.228;14.116;2023-06-26T08:19:50;98074.63;;;24.04;65.86
11519;BME280;5816;48.228;14.116;2023-06-26T08:24:51;98069.94;;;24.11;65.38
11519;BME280;5816;48.228;14.116;2023-06-26T08:29:53;98074.03;;;24.65;63.77
11519;BME280;5816;48.228;14.116;2023-06-26T08:34:55;98071.56;;;25.07;63.41
11519;BME280;5816;48.228;14.116;2023-06-26T08:39:57;98063.44;;;24.94;62.51
11519;BME280;5816;48.228;14.116;2023-06-26T08:45:00;98062.34;;;24.76;61.77
11519;BME280;5816;48.228;14.116;2023-06-26T08:50:13;98060.63;;;25.43;61.74
11519;BME280;5816;48.228;14.116;2023-06-26T08:55:16;98061.31;;;25.57;61.26
11519;BME280;5816;48.228;14.116;2023-06-26T09:00:18;98051.81;;;25.60;60.84
11519;BME280;5816;48.228;14.116;2023-06-26T09:05:20;98048.59;;;25.81;60.95
11519;BME280;5816;48.228;14.116;2023-06-26T09:10:22;98052.59;;;25.97;59.88
11519;BME280;5816;48.228;14.116;2023-06-26T09:15:24;98043.72;;;26.43;59.70
11519;BME280;5816;48.228;14.116;2023-06-26T09:20:27;98047.31;;;26.44;60.16
11519;BME280;5816;48.228;14.116;2023-06-26T09:25:31;98041.72;;;26.50;57.80
11519;BME280;5816;48.228;14.116;2023-06-26T09:30:33;98036.25;;;26.74;58.06
11519;BME280;5816;48.228;14.116;2023-06-26T09:35:35;98029.25;;;27.53;57.23
11519;BME280;5816;48.228;14.116;2023-06-26T09:40:37;98030.03;;;27.37;56.90
11519;BME280;5816;48.228;14.116;2023-06-26T09:45:42;98027.69;;;28.09;54.67
11519;BME280;5816;48.228;14.116;2023-06-26T09:50:45;98024.91;;;27.81;56.33
11519;BME280;5816;48.228;14.116;2023-06-26T09:56:14;98019.63;;;27.91;53.28
11519;BME280;5816;48.228;14.116;2023-06-26T10:01:19;98020.59;;;27.85;53.32
11519;BME280;5816;48.228;14.116;2023-06-26T10:06:27;98009.66;;;28.19;55.09
11519;BME280;5816;48.228;14.116;2023-06-26T10:11:39;98006.56;;;28.60;51.91
11519;BME280;5816;48.228;14.116;2023-06-26T10:16:43;97981.75;;;27.98;51.59
11519;BME280;5816;48.228;14.116;2023-06-26T10:21:46;97992.25;;;28.63;52.44
11519;BME280;5816;48.228;14.116;2023-06-26T10:26:52;98002.78;;;28.04;50.38
11519;BME280;5816;48.228;14.116;2023-06-26T10:32:00;97985.75;;;28.70;50.37
11519;BME280;5816;48.228;14.116;2023-06-26T10:37:06;97975.16;;;28.95;50.80
11519;BME280;5816;48.228;14.116;2023-06-26T10:42:09;97982.31;;;28.96;50.46
11519;BME280;5816;48.228;14.116;2023-06-26T10:47:29;97975.81;;;29.02;50.53
11519;BME280;5816;48.228;14.116;2023-06-26T10:52:36;97967.34;;;29.31;50.15
11519;BME280;5816;48.228;14.116;2023-06-26T10:57:39;97970.31;;;28.68;49.23
11519;BME280;5816;48.228;14.116;2023-06-26T11:02:49;97966.56;;;29.52;48.97
11519;BME280;5816;48.228;14.116;2023-06-26T11:08:07;97962.88;;;29.68;48.95
11519;BME280;5816;48.228;14.116;2023-06-26T11:13:10;97950.69;;;29.64;47.58
11519;BME280;5816;48.228;14.116;2023-06-26T11:18:13;97961.44;;;29.88;48.63
11519;BME280;5816;48.228;14.116;2023-06-26T11:23:21;97962.38;;;29.71;47.10
11519;BME280;5816;48.228;14.116;2023-06-26T11:28:24;97940.63;;;30.07;46.48
11519;BME280;5816;48.228;14.116;2023-06-26T11:33:26;97945.22;;;30.23;47.04
11519;BME280;5816;48.228;14.116;2023-06-26T11:38:37;97947.38;;;30.16;47.20
11519;BME280;5816;48.228;14.116;2023-06-26T11:43:39;97940.28;;;30.25;46.49
11519;BME280;5816;48.228;14.116;2023-06-26T11:48:41;97930.84;;;30.53;45.95
11519;BME280;5816;48.228;14.116;2023-06-26T11:53:44;97935.59;;;30.63;46.85
11519;BME280;5816;48.228;14.116;2023-06-26T11:59:13;97923.66;;;30.20;46.11
11519;BME280;5816;48.228;14.116;2023-06-26T12:04:16;97914.44;;;30.79;45.49
11519;BME280;5816;48.228;14.116;2023-06-26T12:09:19;97917.47;;;30.77;47.64
11519;BME280;5816;48.228;14.116;2023-06-26T12:14:22;97906.75;;;30.17;46.90
11519;BME280;5816;48.228;14.116;2023-06-26T12:19:26;97913.56;;;30.73;46.24
11519;BME280;5816;48.228;14.116;2023-06-26T12:24:28;97911.03;;;31.09;45.92
11519;BME280;5816;48.228;14.116;2023-06-26T12:29:34;97913.22;;;31.12;46.19
11519;BME280;5816;48.228;14.116;2023-06-26T12:34:38;97899.38;;;31.02;46.54
11519;BME280;5816;48.228;14.116;2023-06-26T12:39:46;97908.03;;;30.73;44.85
11519;BME280;5816;48.228;14.116;2023-06-26T12:44:49;97899.97;;;31.14;44.79
11519;BME280;5816;48.228;14.116;2023-06-26T12:49:51;97886.59;;;30.91;45.82
11519;BME280;5816;48.228;14.116;2023-06-26T12:54:55;97877.06;;;31.29;46.62
11519;BME280;5816;48.228;14.116;2023-06-26T12:59:58;97889.03;;;30.87;44.58
11519;BME280;5816;48.228;14.116;2023-06-26T13:05:01;97872.94;;;31.26;43.98
11519;BME280;5816;48.228;14.116;2023-06-26T13:10:03;97856.66;;;31.55;44.30
11519;BME280;5816;48.228;14.116;2023-06-26T13:15:06;97865.81;;;31.56;44.00
11519;BME280;5816;48.228;14.116;2023-06-26T13:20:09;97860.38;;;31.86;44.35
11519;BME280;5816;48.228;14.116;2023-06-26T13:25:11;97837.81;;;31.42;42.65
11519;BME280;5816;48.228;14.116;2023-06-26T13:30:14;97845.38;;;31.82;43.41
11519;BME280;5816;48.228;14.116;2023-06-26T13:35:18;97857.59;;;31.81;42.85
11519;BME280;5816;48.228;14.116;2023-06-26T13:40:20;97847.63;;;31.96;42.90
11519;BME280;5816;48.228;14.116;2023-06-26T13:45:22;97840.97;;;31.97;42.83
11519;BME280;5816;48.228;14.116;2023-06-26T13:50:32;97824.31;;;31.71;41.93
11519;BME280;5816;48.228;14.116;2023-06-26T13:55:54;97823.25;;;31.87;41.81
11519;BME280;5816;48.228;14.116;2023-06-26T14:00:55;97814.88;;;31.67;41.25
11519;BME280;5816;48.228;14.116;2023-06-26T14:05:57;97813.00;;;32.08;41.10
11519;BME280;5816;48.228;14.116;2023-06-26T14:10:59;97811.59;;;32.36;40.01
11519;BME280;5816;48.228;14.116;2023-06-26T14:16:02;97804.13;;;31.96;42.53
11519;BME280;5816;48.228;14.116;2023-06-26T14:21:04;97802.16;;;32.12;40.61
11519;BME280;5816;48.228;14.116;2023-06-26T14:26:07;97800.50;;;32.41;40.24
11519;BME280;5816;48.228;14.116;2023-06-26T14:31:09;97797.72;;;32.06;40.62
11519;BME280;5816;48.228;14.116;2023-06-26T14:36:11;97790.47;;;32.56;40.02
11519;BME280;5816;48.228;14.116;2023-06-26T14:41:13;97777.25;;;31.97;39.59
11519;BME280;5816;48.228;14.116;2023-06-26T14:46:15;97743.97;;;32.17;42.07
11519;BME280;5816;48.228;14.116;2023-06-26T14:51:17;97769.66;;;32.63;39.70
11519;BME280;5816;48.228;14.116;2023-06-26T14:56:19;97760.09;;;32.00;41.27
11519;BME280;5816;48.228;14.116;2023-06-26T15:01:21;97747.81;;;32.26;40.24
11519;BME280;5816;48.228;14.116;2023-06-26T15:06:23;97758.72;;;32.97;39.53
11519;BME280;5816;48.228;14.116;2023-06-26T15:11:26;97738.69;;;32.26;39.52
11519;BME280;5816;48.228;14.116;2023-06-26T15:16:28;97751.84;;;32.74;40.48
11519;BME280;5816;48.228;14.116;2023-06-26T15:21:30;97741.78;;;32.09;40.23
11519;BME280;5816;48.228;14.116;2023-06-26T15:26:32;97732.50;;;32.64;40.80
11519;BME280;5816;48.228;14.116;2023-06-26T15:31:33;97725.38;;;32.33;41.38
11519;BME280;5816;48.228;14.116;2023-06-26T15:36:35;97723.81;;;32.86;40.89
11519;BME280;5816;48.228;14.116;2023-06-26T15:41:39;97720.47;;;32.84;40.16
11519;BME280;5816;48.228;14.116;2023-06-26T15:46:41;97712.38;;;32.28;38.72
11519;BME280;5816;48.228;14.116;2023-06-26T15:51:43;97686.75;;;32.62;41.53
11519;BME280;5816;48.228;14.116;2023-06-26T15:56:47;97709.50;;;32.54;41.15
11519;BME280;5816;48.228;14.116;2023-06-26T16:01:49;97706.78;;;32.49;40.64
11519;BME280;5816;48.228;14.116;2023-06-26T16:06:52;97698.38;;;32.64;41.04
11519;BME280;5816;48.228;14.116;2023-06-26T16:12:00;97688.00;;;32.20;39.91
11519;BME280;5816;48.228;14.116;2023-06-26T16:17:02;97685.13;;;32.56;39.41
11519;BME280;5816;48.228;14.116;2023-06-26T16:22:09;97639.13;;;32.55;38.73
11519;BME280;5816;48.228;14.116;2023-06-26T16:27:11;97679.38;;;32.96;39.75
11519;BME280;5816;48.228;14.116;2023-06-26T16:32:13;97569.59;;;31.61;40.08
11519;BME280;5816;48.228;14.116;2023-06-26T16:37:15;97614.88;;;32.16;41.20
11519;BME280;5816;48.228;14.116;2023-06-26T16:42:21;97656.78;;;32.64;41.12
11519;BME280;5816;48.228;14.116;2023-06-26T16:47:32;97566.59;;;32.32;40.89
11519;BME280;5816;48.228;14.116;2023-06-26T16:52:44;97554.66;;;31.62;43.05
11519;BME280;5816;48.228;14.116;2023-06-26T16:57:46;97557.41;;;31.62;43.37
11519;BME280;5816;48.228;14.116;2023-06-26T17:02:50;97639.34;;;31.63;44.66
11519;BME280;5816;48.228;14.116;2023-06-26T17:07:52;97625.53;;;31.17;45.98
11519;BME280;5816;48.228;14.116;2023-06-26T17:13:01;97554.72;;;30.70;46.40
11519;BME280;5816;48.228;14.116;2023-06-26T17:18:03;97617.50;;;30.85;50.98
11519;BME280;5816;48.228;14.116;2023-06-26T17:23:09;97572.63;;;30.57;52.74
11519;BME280;5816;48.228;14.116;2023-06-26T17:28:11;97559.06;;;30.36;52.60
11519;BME280;5816;48.228;14.116;2023-06-26T17:33:13;97487.16;;;30.10;51.09
11519;BME280;5816;48.228;14.116;2023-06-26T17:38:14;97507.09;;;28.75;54.83
11519;BME280;5816;48.228;14.116;2023-06-26T17:43:16;97585.84;;;28.66;57.40
11519;BME280;5816;48.228;14.116;2023-06-26T17:48:22;97598.75;;;28.60;59.00
11519;BME280;5816;48.228;14.116;2023-06-26T17:53:24;97611.50;;;28.72;58.60
11519;BME280;5816;48.228;14.116;2023-06-26T17:58:26;97609.41;;;28.52;59.85
11519;BME280;5816;48.228;14.116;2023-06-26T18:03:28;97614.72;;;28.36;58.60
11519;BME280;5816;48.228;14.116;2023-06-26T18:08:30;97593.91;;;27.80;60.61
11519;BME280;5816;48.228;14.116;2023-06-26T18:13:33;97610.31;;;27.92;62.87
11519;BME280;5816;48.228;14.116;2023-06-26T18:18:38;97617.34;;;27.82;64.51
11519;BME280;5816;48.228;14.116;2023-06-26T18:23:40;97618.53;;;27.53;66.62
11519;BME280;5816;48.228;14.116;2023-06-26T18:28:42;97611.66;;;27.17;67.17
11519;BME280;5816;48.228;14.116;2023-06-26T18:33:44;97626.06;;;26.45;71.31
11519;BME280;5816;48.228;14.116;2023-06-26T18:38:46;97615.97;;;26.79;68.93
11519;BME280;5816;48.228;14.116;2023-06-26T18:43:48;97615.25;;;26.55;69.50
11519;BME280;5816;48.228;14.116;2023-06-26T18:49:02;97635.03;;;26.40;70.36
11519;BME280;5816;48.228;14.116;2023-06-26T18:54:04;97620.00;;;25.79;72.37
11519;BME280;5816;48.228;14.116;2023-06-26T18:59:06;97618.97;;;25.80;71.62
11519;BME280;5816;48.228;14.116;2023-06-26T19:04:08;97646.25;;;25.63;72.70
11519;BME280;5816;48.228;14.116;2023-06-26T19:09:10;97635.63;;;25.20;72.85
11519;BME280;5816;48.228;14.116;2023-06-26T19:14:13;97643.03;;;25.31;72.37
11519;BME280;5816;48.228;14.116;2023-06-26T19:19:15;97651.59;;;24.81;73.22
11519;BME280;5816;48.228;14.116;2023-06-26T19:24:17;97641.59;;;23.97;76.98
11519;BME280;5816;48.228;14.116;2023-06-26T19:29:19;97638.81;;;24.33;76.27
11519;BME280;5816;48.228;14.116;2023-06-26T19:34:22;97635.63;;;24.37;76.40
11519;BME280;5816;48.228;14.116;2023-06-26T19:39:25;97646.19;;;24.33;76.54
11519;BME280;5816;48.228;14.116;2023-06-26T19:44:26;97658.91;;;23.91;77.65
11519;BME280;5816;48.228;14.116;2023-06-26T19:49:29;97663.94;;;23.75;79.71
11519;BME280;5816;48.228;14.116;2023-06-26T19:54:30;97658.75;;;23.67;78.61
